createdAt,value
2019-05-22T00:00:30.026Z,13.22
2019-05-22T00:03:12.741Z,13.53
2019-05-22T00:06:05.898Z,13.42
2019-05-22T00:08:37.189Z,13.41
2019-05-22T00:11:09.391Z,13.28
2019-05-22T00:13:40.559Z,13.31
2019-05-22T00:16:11.451Z,13.39
2019-05-22T00:18:40.517Z,13.29
2019-05-22T00:21:10.676Z,13.04
2019-05-22T00:23:41.511Z,13.54
2019-05-22T00:26:12.025Z,13.18
2019-05-22T00:28:41.752Z,13.01
2019-05-22T00:31:13.923Z,13.14
2019-05-22T00:33:44.212Z,13.07
2019-05-22T00:36:13.652Z,13.04
2019-05-22T00:38:43.834Z,13.11
2019-05-22T00:41:12.969Z,13.03
2019-05-22T00:43:45.089Z,12.88
2019-05-22T00:46:16.380Z,13.28
2019-05-22T00:48:48.242Z,13.20
2019-05-22T00:51:37.040Z,12.99
2019-05-22T00:54:17.560Z,12.90
2019-05-22T00:56:57.619Z,12.97
2019-05-22T00:59:35.826Z,12.97
2019-05-22T01:02:12.590Z,12.70
2019-05-22T01:04:42.600Z,13.06
2019-05-22T01:07:20.933Z,13.16
2019-05-22T01:09:52.282Z,12.87
2019-05-22T01:12:27.269Z,12.68
2019-05-22T01:14:58.868Z,12.38
2019-05-22T01:17:30.160Z,12.50
2019-05-22T01:20:01.365Z,12.32
2019-05-22T01:22:31.176Z,12.45
2019-05-22T01:25:02.837Z,12.33
2019-05-22T01:27:32.719Z,12.15
2019-05-22T01:30:03.825Z,12.23
2019-05-22T01:32:46.730Z,12.28
2019-05-22T01:35:16.793Z,11.61
2019-05-22T01:37:46.138Z,11.95
2019-05-22T01:40:36.834Z,12.09
2019-05-22T01:43:09.689Z,12.03
2019-05-22T01:45:40.140Z,11.45
2019-05-22T01:48:15.490Z,11.78
2019-05-22T01:50:48.987Z,11.90
2019-05-22T01:53:21.870Z,11.68
2019-05-22T01:55:53.434Z,11.89
2019-05-22T01:58:23.903Z,12.10
2019-05-22T02:00:55.571Z,11.82
2019-05-22T02:03:25.423Z,11.79
2019-05-22T02:05:55.207Z,11.66
2019-05-22T02:08:27.299Z,11.82
2019-05-22T02:11:00.154Z,11.73
2019-05-22T02:13:33.185Z,11.91
2019-05-22T02:16:02.783Z,11.90
2019-05-22T02:18:34.333Z,11.61
2019-05-22T02:21:04.753Z,11.76
2019-05-22T02:23:35.856Z,11.71
2019-05-22T02:26:07.609Z,11.67
2019-05-22T02:28:38.808Z,11.47
2019-05-22T02:31:08.551Z,11.63
2019-05-22T02:33:39.764Z,11.67
2019-05-22T02:36:09.353Z,11.46
2019-05-22T02:38:39.948Z,11.23
2019-05-22T02:41:13.988Z,10.98
2019-05-22T02:43:40.243Z,11.25
2019-05-22T02:46:12.115Z,11.49
2019-05-22T02:48:42.426Z,11.32
2019-05-22T02:51:12.753Z,11.29
2019-05-22T02:53:41.648Z,11.39
2019-05-22T02:56:11.165Z,10.70
2019-05-22T02:58:40.550Z,10.92
2019-05-22T03:01:11.755Z,11.34
2019-05-22T03:03:46.072Z,11.31
2019-05-22T03:06:18.168Z,11.37
2019-05-22T03:09:03.491Z,10.58
2019-05-22T03:11:40.732Z,11.20
2019-05-22T03:14:13.750Z,11.41
2019-05-22T03:17:03.294Z,11.42
2019-05-22T03:19:36.755Z,11.48
2019-05-22T03:22:26.293Z,11.37
2019-05-22T03:24:58.216Z,11.28
2019-05-22T03:27:50.874Z,11.30
2019-05-22T03:30:24.758Z,11.32
2019-05-22T03:32:56.598Z,11.40
2019-05-22T03:35:28.303Z,11.21
2019-05-22T03:37:59.286Z,11.13
2019-05-22T03:40:29.968Z,11.18
2019-05-22T03:43:02.286Z,11.08
2019-05-22T03:45:32.900Z,11.26
2019-05-22T03:48:05.033Z,11.29
2019-05-22T03:50:33.856Z,11.29
2019-05-22T03:53:08.427Z,11.04
2019-05-22T03:55:38.259Z,11.03
2019-05-22T03:58:08.690Z,11.00
2019-05-22T04:00:43.337Z,11.09
2019-05-22T04:03:12.952Z,11.12
2019-05-22T04:05:42.254Z,11.11
2019-05-22T04:08:13.705Z,11.13
2019-05-22T04:11:03.240Z,11.05
2019-05-22T04:13:33.610Z,11.07
2019-05-22T04:16:04.763Z,11.19
2019-05-22T04:18:33.641Z,10.98
2019-05-22T04:21:03.627Z,10.94
2019-05-22T04:23:32.660Z,10.93
2019-05-22T04:26:01.980Z,11.10
2019-05-22T04:28:31.586Z,11.03
2019-05-22T04:31:00.873Z,11.08
2019-05-22T04:33:30.962Z,11.07
2019-05-22T04:36:02.075Z,11.24
2019-05-22T04:38:31.643Z,11.17
2019-05-22T04:41:02.429Z,11.14
2019-05-22T04:43:34.316Z,10.55
2019-05-22T04:46:05.494Z,10.92
2019-05-22T04:48:35.397Z,10.99
2019-05-22T04:51:22.831Z,10.90
2019-05-22T04:53:52.632Z,11.05
2019-05-22T04:56:22.923Z,11.03
2019-05-22T04:58:52.761Z,11.02
2019-05-22T05:01:22.450Z,11.03
2019-05-22T05:03:52.286Z,11.15
2019-05-22T05:06:24.021Z,11.14
2019-05-22T05:08:53.242Z,11.22
2019-05-22T05:11:22.236Z,11.17
2019-05-22T05:13:51.342Z,11.07
2019-05-22T05:16:20.223Z,11.10
2019-05-22T05:18:49.321Z,11.29
2019-05-22T05:21:18.312Z,11.15
2019-05-22T05:23:47.620Z,11.20
2019-05-22T05:26:16.900Z,11.23
2019-05-22T05:28:46.522Z,11.39
2019-05-22T05:31:15.518Z,11.38
2019-05-22T05:33:50.655Z,11.21
2019-05-22T05:36:20.566Z,11.55
2019-05-22T05:38:49.459Z,11.66
2019-05-22T05:41:18.452Z,11.86
2019-05-22T05:43:47.526Z,12.01
2019-05-22T05:46:16.611Z,11.84
2019-05-22T05:48:47.636Z,12.24
2019-05-22T05:51:19.442Z,12.27
2019-05-22T05:54:00.052Z,12.17
2019-05-22T05:56:32.077Z,12.15
2019-05-22T05:59:03.269Z,12.01
2019-05-22T06:01:34.062Z,12.39
2019-05-22T06:04:04.175Z,12.70
2019-05-22T06:06:36.376Z,12.55
2019-05-22T06:09:08.794Z,12.31
2019-05-22T06:11:50.738Z,12.51
2019-05-22T06:14:28.893Z,12.41
2019-05-22T06:17:23.188Z,12.54
2019-05-22T06:19:55.892Z,12.70
2019-05-22T06:22:25.294Z,12.81
2019-05-22T06:25:04.663Z,12.72
2019-05-22T06:27:35.528Z,12.72
2019-05-22T06:30:10.340Z,12.69
2019-05-22T06:33:09.586Z,12.79
2019-05-22T06:35:40.033Z,12.89
2019-05-22T06:38:37.591Z,12.85
2019-05-22T06:41:07.484Z,13.22
2019-05-22T06:43:40.597Z,13.30
2019-05-22T06:46:11.773Z,13.15
2019-05-22T06:48:42.579Z,13.22
2019-05-22T06:51:19.475Z,13.17
2019-05-22T06:53:43.665Z,13.23
2019-05-22T06:56:15.121Z,13.38
2019-05-22T06:58:43.988Z,13.55
2019-05-22T07:01:13.042Z,13.46
2019-05-22T07:03:42.127Z,13.55
2019-05-22T07:06:13.646Z,13.20
2019-05-22T07:08:43.232Z,13.19
2019-05-22T07:11:12.634Z,13.14
2019-05-22T07:13:41.733Z,13.54
2019-05-22T07:16:11.436Z,13.46
2019-05-22T07:18:41.889Z,13.75
2019-05-22T07:21:12.308Z,13.81
2019-05-22T07:23:43.340Z,13.99
2019-05-22T07:26:12.883Z,14.12
2019-05-22T07:28:42.119Z,14.68
2019-05-22T07:31:11.867Z,14.79
2019-05-22T07:33:40.952Z,14.76
2019-05-22T07:36:15.266Z,14.19
2019-05-22T07:38:41.394Z,14.43
2019-05-22T07:41:11.108Z,14.92
2019-05-22T07:43:41.581Z,15.39
2019-05-22T07:46:12.074Z,15.38
2019-05-22T07:48:41.670Z,15.59
2019-05-22T07:51:12.824Z,15.52
2019-05-22T07:53:42.219Z,15.39
2019-05-22T07:56:13.094Z,14.88
2019-05-22T07:58:43.280Z,15.36
2019-05-22T08:01:12.376Z,15.79
2019-05-22T08:03:43.796Z,15.62
2019-05-22T08:06:12.829Z,16.08
2019-05-22T08:08:44.653Z,15.98
2019-05-22T08:11:14.644Z,15.96
2019-05-22T08:13:45.539Z,16.19
2019-05-22T08:16:16.676Z,16.21
2019-05-22T08:18:46.591Z,16.33
2019-05-22T08:21:16.180Z,16.35
2019-05-22T08:23:45.297Z,16.49
2019-05-22T08:26:15.853Z,16.49
2019-05-22T08:28:45.029Z,16.72
2019-05-22T08:31:15.909Z,16.54
2019-05-22T08:33:45.469Z,16.51
2019-05-22T08:36:14.974Z,16.80
2019-05-22T08:38:45.679Z,16.18
2019-05-22T08:41:16.418Z,16.06
2019-05-22T08:44:14.465Z,16.69
2019-05-22T08:46:18.356Z,16.72
2019-05-22T08:48:48.883Z,16.72
2019-05-22T08:51:18.328Z,17.19
2019-05-22T08:53:48.744Z,17.13
2019-05-22T08:56:18.425Z,16.92
2019-05-22T08:58:48.831Z,16.95
2019-05-22T09:01:17.717Z,17.42
2019-05-22T09:03:47.116Z,17.11
2019-05-22T09:06:16.007Z,16.55
2019-05-22T09:08:44.940Z,16.68
2019-05-22T09:11:13.789Z,16.77
2019-05-22T09:13:42.681Z,17.00
2019-05-22T09:16:13.609Z,17.04
2019-05-22T09:18:42.614Z,17.12
2019-05-22T09:21:13.485Z,17.34
2019-05-22T09:23:43.066Z,17.65
2019-05-22T09:26:12.883Z,17.69
2019-05-22T09:28:41.878Z,17.43
2019-05-22T09:31:11.781Z,17.61
2019-05-22T09:33:40.673Z,17.46
2019-05-22T09:36:11.442Z,17.82
2019-05-22T09:38:40.401Z,17.74
2019-05-22T09:41:10.396Z,17.78
2019-05-22T09:43:39.320Z,17.71
2019-05-22T09:46:09.529Z,17.83
2019-05-22T09:48:39.653Z,17.96
2019-05-22T09:51:09.258Z,18.26
2019-05-22T09:53:38.870Z,18.42
2019-05-22T09:56:08.701Z,18.53
2019-05-22T09:58:38.096Z,18.28
2019-05-22T10:01:11.709Z,17.90
2019-05-22T10:03:40.269Z,17.94
2019-05-22T10:06:09.662Z,17.95
2019-05-22T10:08:38.668Z,18.05
2019-05-22T10:11:08.169Z,18.05
2019-05-22T10:13:37.245Z,18.46
2019-05-22T10:16:07.051Z,18.61
2019-05-22T10:18:36.598Z,18.60
2019-05-22T10:21:05.938Z,18.63
2019-05-22T10:23:35.866Z,18.53
2019-05-22T10:26:05.538Z,18.70
2019-05-22T10:28:35.571Z,18.72
2019-05-22T10:31:06.298Z,18.69
2019-05-22T10:33:36.902Z,18.62
2019-05-22T10:36:08.020Z,18.52
2019-05-22T10:38:37.035Z,18.08
2019-05-22T10:41:06.666Z,18.15
2019-05-22T10:43:35.943Z,18.41
2019-05-22T10:46:06.100Z,18.52
2019-05-22T10:48:39.767Z,18.49
2019-05-22T10:51:06.748Z,18.34
2019-05-22T10:53:37.385Z,18.21
2019-05-22T10:56:06.568Z,18.19
2019-05-22T10:58:35.743Z,18.34
2019-05-22T11:01:05.136Z,18.27
2019-05-22T11:03:35.171Z,18.51
2019-05-22T11:06:07.601Z,18.56
2019-05-22T11:08:35.815Z,18.32
2019-05-22T11:11:05.322Z,18.50
2019-05-22T11:13:35.034Z,19.15
2019-05-22T11:16:04.455Z,19.39
2019-05-22T11:18:35.508Z,19.13
2019-05-22T11:21:04.998Z,19.01
2019-05-22T11:23:50.443Z,18.99
2019-05-22T11:26:05.633Z,19.19
2019-05-22T11:28:34.883Z,19.08
2019-05-22T11:31:04.542Z,18.96
2019-05-22T11:33:34.432Z,18.87
2019-05-22T11:36:04.807Z,18.77
2019-05-22T11:38:33.774Z,18.95
2019-05-22T11:41:03.058Z,19.32
2019-05-22T11:43:31.964Z,19.37
2019-05-22T11:46:01.076Z,19.38
2019-05-22T11:48:30.150Z,19.36
2019-05-22T11:51:00.982Z,19.58
2019-05-22T11:53:30.971Z,19.47
2019-05-22T11:56:01.171Z,19.13
2019-05-22T11:58:31.643Z,19.35
2019-05-22T12:01:02.041Z,19.31
2019-05-22T12:03:33.446Z,19.52
2019-05-22T12:06:04.293Z,19.82
2019-05-22T12:08:33.274Z,19.73
2019-05-22T12:11:03.259Z,19.41
2019-05-22T12:13:32.998Z,19.83
2019-05-22T12:16:03.998Z,19.66
2019-05-22T12:18:35.085Z,20.08
2019-05-22T12:21:05.864Z,20.09
2019-05-22T12:23:35.413Z,19.83
2019-05-22T12:26:04.859Z,19.76
2019-05-22T12:28:39.966Z,19.94
2019-05-22T12:31:13.588Z,19.75
2019-05-22T12:33:44.913Z,19.75
2019-05-22T12:36:14.893Z,20.06
2019-05-22T12:38:48.202Z,19.86
2019-05-22T12:41:20.537Z,19.77
2019-05-22T12:43:50.528Z,20.39
2019-05-22T12:46:20.771Z,19.88
2019-05-22T12:48:52.986Z,19.96
2019-05-22T12:51:42.393Z,20.45
2019-05-22T12:54:12.021Z,20.20
2019-05-22T12:56:44.232Z,20.13
2019-05-22T12:59:14.236Z,20.16
2019-05-22T13:01:45.971Z,20.22
2019-05-22T13:04:15.743Z,20.73
2019-05-22T13:06:45.838Z,20.79
2019-05-22T13:09:15.164Z,20.49
2019-05-22T13:11:46.498Z,20.44
2019-05-22T13:14:15.505Z,20.63
2019-05-22T13:16:48.860Z,21.04
2019-05-22T13:19:16.434Z,20.88
2019-05-22T13:21:48.075Z,21.25
2019-05-22T13:24:19.088Z,21.70
2019-05-22T13:26:51.315Z,21.81
2019-05-22T13:29:21.635Z,22.12
2019-05-22T13:31:52.762Z,21.27
2019-05-22T13:34:24.061Z,21.45
2019-05-22T13:36:56.548Z,22.00
2019-05-22T13:39:24.732Z,22.07
2019-05-22T13:41:53.686Z,22.42
2019-05-22T13:44:24.830Z,21.71
2019-05-22T13:46:54.234Z,21.61
2019-05-22T13:49:23.432Z,22.03
2019-05-22T13:51:53.142Z,21.99
2019-05-22T13:54:22.441Z,22.46
2019-05-22T13:56:51.414Z,22.76
2019-05-22T13:59:21.055Z,22.58
2019-05-22T14:01:50.732Z,22.45
2019-05-22T14:04:19.748Z,21.53
2019-05-22T14:06:49.049Z,21.05
2019-05-22T14:09:21.441Z,21.86
2019-05-22T14:11:51.235Z,21.66
2019-05-22T14:14:20.228Z,21.27
2019-05-22T14:16:49.534Z,20.99
2019-05-22T14:19:19.245Z,20.88
2019-05-22T14:21:51.509Z,20.92
2019-05-22T14:24:18.921Z,20.49
2019-05-22T14:26:48.155Z,22.13
2019-05-22T14:29:17.142Z,22.99
2019-05-22T14:31:46.061Z,23.19
2019-05-22T14:34:15.077Z,22.89
2019-05-22T14:36:44.466Z,22.09
2019-05-22T14:39:14.570Z,21.85
2019-05-22T14:41:43.871Z,22.40
2019-05-22T14:44:12.863Z,22.77
2019-05-22T14:46:41.859Z,22.66
2019-05-22T14:49:12.006Z,23.32
2019-05-22T14:51:41.181Z,22.82
2019-05-22T14:54:10.680Z,23.60
2019-05-22T14:56:39.882Z,23.98
2019-05-22T14:59:09.204Z,23.41
2019-05-22T15:01:38.378Z,23.24
2019-05-22T15:04:08.154Z,23.50
2019-05-22T15:06:37.753Z,24.25
2019-05-22T15:09:07.637Z,23.67
2019-05-22T15:11:37.014Z,23.50
2019-05-22T15:14:06.009Z,24.26
2019-05-22T15:16:34.997Z,24.26
2019-05-22T15:19:04.187Z,23.66
2019-05-22T15:21:33.910Z,23.99
2019-05-22T15:24:03.609Z,24.17
2019-05-22T15:26:32.410Z,23.69
2019-05-22T15:29:01.458Z,23.90
2019-05-22T15:31:31.218Z,23.72
2019-05-22T15:34:02.517Z,24.44
2019-05-22T15:36:31.869Z,24.90
2019-05-22T15:39:02.303Z,24.67
2019-05-22T15:41:31.598Z,24.94
2019-05-22T15:44:00.604Z,23.94
2019-05-22T15:46:32.926Z,24.49
2019-05-22T15:49:04.626Z,24.65
2019-05-22T15:51:34.520Z,24.38
2019-05-22T15:54:05.663Z,23.42
2019-05-22T15:56:36.290Z,24.45
2019-05-22T15:59:07.501Z,24.49
2019-05-22T16:01:37.571Z,24.36
2019-05-22T16:04:09.203Z,24.87
2019-05-22T16:06:40.143Z,24.29
2019-05-22T16:09:13.322Z,23.88
2019-05-22T16:11:44.205Z,24.35
2019-05-22T16:14:15.000Z,24.55
2019-05-22T16:16:45.779Z,23.19
2019-05-22T16:19:15.276Z,23.98
2019-05-22T16:21:50.892Z,24.58
2019-05-22T16:24:20.060Z,24.31
2019-05-22T16:26:49.528Z,24.13
2019-05-22T16:29:18.956Z,23.72
2019-05-22T16:31:48.766Z,24.12
2019-05-22T16:34:18.864Z,24.92
2019-05-22T16:36:48.210Z,24.53
2019-05-22T16:39:18.693Z,25.12
2019-05-22T16:41:48.185Z,24.89
2019-05-22T16:44:17.609Z,24.66
2019-05-22T16:46:47.098Z,24.54
2019-05-22T16:49:16.408Z,24.32
2019-05-22T16:51:46.308Z,24.13
2019-05-22T16:54:20.653Z,24.24
2019-05-22T16:56:48.849Z,24.55
2019-05-22T16:59:19.563Z,23.51
2019-05-22T17:01:59.372Z,23.25
2019-05-22T17:04:19.693Z,23.77
2019-05-22T17:06:48.890Z,24.59
2019-05-22T17:09:19.116Z,23.91
2019-05-22T17:11:48.467Z,23.45
2019-05-22T17:14:20.018Z,23.61
2019-05-22T17:16:51.638Z,24.43
2019-05-22T17:19:27.153Z,24.63
2019-05-22T17:21:52.782Z,23.35
2019-05-22T17:24:22.805Z,23.54
2019-05-22T17:26:53.397Z,24.08
2019-05-22T17:29:22.554Z,23.30
2019-05-22T17:31:53.198Z,23.72
2019-05-22T17:34:31.785Z,23.62
2019-05-22T17:37:02.617Z,23.92
2019-05-22T17:39:34.478Z,23.15
2019-05-22T17:42:04.505Z,23.63
2019-05-22T17:44:35.400Z,23.92
2019-05-22T17:47:06.744Z,23.19
2019-05-22T17:49:37.880Z,23.07
2019-05-22T17:52:12.057Z,22.94
2019-05-22T17:54:40.422Z,23.33
2019-05-22T17:57:10.706Z,22.78
2019-05-22T17:59:39.947Z,22.77
2019-05-22T18:02:11.033Z,22.99
2019-05-22T18:04:39.875Z,22.91
2019-05-22T18:07:10.096Z,22.68
2019-05-22T18:09:40.116Z,23.22
2019-05-22T18:12:09.519Z,23.22
2019-05-22T18:14:39.227Z,23.40
2019-05-22T18:17:09.078Z,22.76
2019-05-22T18:19:38.242Z,23.13
2019-05-22T18:22:09.895Z,22.93
2019-05-22T18:24:38.787Z,23.28
2019-05-22T18:27:07.987Z,23.40
2019-05-22T18:29:36.982Z,23.09
2019-05-22T18:32:07.007Z,23.69
2019-05-22T18:34:36.206Z,24.09
2019-05-22T18:37:05.701Z,22.70
2019-05-22T18:39:35.104Z,22.88
2019-05-22T18:42:04.396Z,23.22
2019-05-22T18:44:33.503Z,23.30
2019-05-22T18:47:02.918Z,22.44
2019-05-22T18:49:31.900Z,21.20
2019-05-22T18:52:00.913Z,21.16
2019-05-22T18:54:29.942Z,19.74
2019-05-22T18:57:00.802Z,20.09
2019-05-22T18:59:29.618Z,19.55
2019-05-22T19:02:00.161Z,19.99
2019-05-22T19:04:30.487Z,19.81
2019-05-22T19:06:59.568Z,19.35
2019-05-22T19:09:28.456Z,19.60
2019-05-22T19:11:58.685Z,19.38
2019-05-22T19:14:27.674Z,18.83
2019-05-22T19:16:58.182Z,18.69
2019-05-22T19:19:28.472Z,18.88
2019-05-22T19:21:57.548Z,18.62
2019-05-22T19:24:26.520Z,18.70
2019-05-22T19:26:55.438Z,18.56
2019-05-22T19:29:24.399Z,18.38
2019-05-22T19:31:53.598Z,18.13
2019-05-22T19:34:22.693Z,18.52
2019-05-22T19:36:53.017Z,17.94
2019-05-22T19:39:24.059Z,17.72
2019-05-22T19:42:03.543Z,17.97
2019-05-22T19:44:25.225Z,18.02
2019-05-22T19:46:54.493Z,17.86
2019-05-22T19:49:23.980Z,17.54
2019-05-22T19:51:55.310Z,17.75
2019-05-22T19:54:24.294Z,17.77
2019-05-22T19:56:53.583Z,17.72
2019-05-22T19:59:23.075Z,17.76
2019-05-22T20:01:51.965Z,17.59
2019-05-22T20:04:21.032Z,17.54
2019-05-22T20:06:50.353Z,17.35
2019-05-22T20:09:21.096Z,17.44
2019-05-22T20:11:50.110Z,17.35
2019-05-22T20:14:19.592Z,17.16
2019-05-22T20:16:48.697Z,17.26
2019-05-22T20:19:17.993Z,17.10
2019-05-22T20:21:48.221Z,16.99
2019-05-22T20:24:17.618Z,17.19
2019-05-22T20:26:46.614Z,17.10
2019-05-22T20:29:16.372Z,17.24
2019-05-22T20:31:45.725Z,17.11
2019-05-22T20:34:15.346Z,17.05
2019-05-22T20:36:44.141Z,17.02
2019-05-22T20:39:14.859Z,16.99
2019-05-22T20:41:43.748Z,16.99
2019-05-22T20:44:12.851Z,16.79
2019-05-22T20:46:43.508Z,16.70
2019-05-22T20:49:12.372Z,16.91
2019-05-22T20:51:42.801Z,16.91
2019-05-22T20:54:13.091Z,16.51
2019-05-22T20:56:44.598Z,16.49
2019-05-22T20:59:14.380Z,16.54
2019-05-22T21:01:43.277Z,16.58
2019-05-22T21:04:13.876Z,16.72
2019-05-22T21:06:49.158Z,16.67
2019-05-22T21:09:19.345Z,16.53
2019-05-22T21:11:48.874Z,16.44
2019-05-22T21:14:17.971Z,16.53
2019-05-22T21:16:46.862Z,16.45
2019-05-22T21:19:15.858Z,16.31
2019-05-22T21:21:45.053Z,16.41
2019-05-22T21:24:14.354Z,16.13
2019-05-22T21:26:44.047Z,16.03
2019-05-22T21:29:13.571Z,16.28
2019-05-22T21:31:43.043Z,16.10
2019-05-22T21:34:12.073Z,16.10
2019-05-22T21:36:41.373Z,16.12
2019-05-22T21:39:13.422Z,16.25
2019-05-22T21:41:42.327Z,15.97
2019-05-22T21:44:11.834Z,15.93
2019-05-22T21:46:41.531Z,16.20
2019-05-22T21:49:12.587Z,16.10
2019-05-22T21:51:41.481Z,16.19
2019-05-22T21:54:12.298Z,16.14
2019-05-22T21:56:43.151Z,16.04
2019-05-22T21:59:13.552Z,16.09
2019-05-22T22:01:44.312Z,16.01
2019-05-22T22:04:21.205Z,15.98
2019-05-22T22:06:52.887Z,16.07
2019-05-22T22:09:23.129Z,16.05
2019-05-22T22:11:54.092Z,15.84
2019-05-22T22:14:24.118Z,15.82
2019-05-22T22:16:53.022Z,16.03
2019-05-22T22:19:22.629Z,16.06
2019-05-22T22:21:51.924Z,15.97
2019-05-22T22:24:21.636Z,16.03
2019-05-22T22:26:51.132Z,15.85
2019-05-22T22:29:20.953Z,15.72
2019-05-22T22:31:51.493Z,15.37
2019-05-22T22:34:23.447Z,15.48
2019-05-22T22:36:52.543Z,15.42
2019-05-22T22:39:21.844Z,15.06
2019-05-22T22:41:51.163Z,14.68
2019-05-22T22:44:21.234Z,14.81
2019-05-22T22:46:57.630Z,14.88
2019-05-22T22:49:28.118Z,14.87
2019-05-22T22:51:57.770Z,13.94
2019-05-22T22:54:26.865Z,13.82
2019-05-22T22:56:56.447Z,14.38
2019-05-22T22:59:26.766Z,14.45
2019-05-22T23:01:56.842Z,14.75
2019-05-22T23:04:28.595Z,14.52
2019-05-22T23:07:00.630Z,14.21
2019-05-22T23:09:29.531Z,14.06
2019-05-22T23:11:59.919Z,14.13
2019-05-22T23:14:29.771Z,14.27
2019-05-22T23:16:58.867Z,13.95
2019-05-22T23:19:33.932Z,14.07
2019-05-22T23:22:03.106Z,13.89
2019-05-22T23:24:34.330Z,13.89
2019-05-22T23:27:03.731Z,13.86
2019-05-22T23:29:33.644Z,14.00
2019-05-22T23:32:04.206Z,13.74
2019-05-22T23:34:33.086Z,13.83
2019-05-22T23:37:02.914Z,13.96
2019-05-22T23:39:32.794Z,13.82
2019-05-22T23:42:04.936Z,13.74
2019-05-22T23:44:36.125Z,13.98
2019-05-22T23:47:05.614Z,13.87
2019-05-22T23:49:36.089Z,13.88
2019-05-22T23:52:06.536Z,13.89
2019-05-22T23:54:36.403Z,13.78
2019-05-22T23:57:05.387Z,13.86
2019-05-22T23:59:36.239Z,13.82
